Time;durP1;ratioP1;P1;durP2;ratioP2;P2;SDS_P1;SDS_P2;PMS_P1;PMS_P2;Temp;Humidity;BMP_temperature;BMP_pressure;BME280_temperature;BME280_humidity;BME280_pressure;Samples;Min_cycle;Max_cycle;Signal;HPM_P1;HPM_P2
2021/12/24 00:00:46;;;;;;;4.90;4.40;;;15.90;44.90;;;;;;5114237;28;20051;-65
2021/12/24 00:03:12;;;;;;;5.72;4.75;;;15.90;45.00;;;;;;5115612;28;20035;-62
2021/12/24 00:05:44;;;;;;;5.45;4.60;;;15.90;45.00;;;;;;5115309;28;20060;-65
2021/12/24 00:08:10;;;;;;;5.13;4.40;;;15.90;45.20;;;;;;5115468;28;20032;-65
2021/12/24 00:10:42;;;;;;;6.05;4.60;;;15.90;45.10;;;;;;5114351;28;20043;-65
2021/12/24 00:13:12;;;;;;;4.25;3.85;;;15.90;45.20;;;;;;5115293;27;20031;-65
2021/12/24 00:37:49;;;;;;;4.53;4.07;;;15.80;45.50;;;;;;5089469;28;20393;-62
2021/12/24 00:40:19;;;;;;;4.82;4.32;;;15.80;45.60;;;;;;5088131;28;20094;-63
2021/12/24 00:42:54;;;;;;;4.13;3.67;;;15.80;45.60;;;;;;5088198;28;20044;-65
2021/12/24 00:45:25;;;;;;;5.00;4.07;;;15.80;45.80;;;;;;5088098;28;20070;-65
2021/12/24 00:47:52;;;;;;;4.65;4.07;;;15.80;45.60;;;;;;5088014;28;20093;-62
2021/12/24 00:50:24;;;;;;;3.90;3.45;;;15.80;45.60;;;;;;5088271;28;20582;-62
2021/12/24 00:52:53;;;;;;;4.43;3.50;;;15.80;45.80;;;;;;5087910;28;20040;-62
2021/12/24 00:55:22;;;;;;;4.05;3.65;;;15.80;45.80;;;;;;5088027;28;20047;-65
2021/12/24 00:57:52;;;;;;;4.28;3.83;;;15.80;45.80;;;;;;5089276;28;20396;-65
2021/12/24 01:00:24;;;;;;;4.57;3.60;;;15.80;45.80;;;;;;5089052;28;20048;-63
2021/12/24 01:02:52;;;;;;;4.68;4.03;;;15.80;45.90;;;;;;5087670;28;20070;-62
2021/12/24 01:05:21;;;;;;;3.92;3.25;;;15.80;46.10;;;;;;5089371;28;20075;-62
2021/12/24 01:07:49;;;;;;;3.55;3.25;;;15.80;46.20;;;;;;5088713;28;20083;-62
2021/12/24 01:10:17;;;;;;;3.40;3.10;;;15.80;46.10;;;;;;5087902;28;20093;-64
2021/12/24 01:12:43;;;;;;;3.67;3.38;;;16.10;45.60;;;;;;5088886;28;20037;-62
2021/12/24 01:15:10;;;;;;;3.95;3.38;;;16.90;44.10;;;;;;5088908;28;20111;-62
2021/12/24 01:20:26;;;;;;;3.08;2.35;;;18.80;40.30;;;;;;5130293;27;20357;-63
2021/12/24 01:25:40;;;;;;;4.75;2.60;;;20.50;37.20;;;;;;5152876;27;1164187;-62
2021/12/24 01:39:21;;;;;;;2.30;1.73;;;21.10;35.60;;;;;;5128902;28;20087;-63
2021/12/24 01:44:37;;;;;;;2.42;2.20;;;20.70;36.30;;;;;;5128792;28;20043;-62
2021/12/24 01:47:06;;;;;;;2.38;1.50;;;20.50;36.70;;;;;;5129039;28;20065;-62
2021/12/24 01:49:33;;;;;;;2.03;1.58;;;20.30;37.10;;;;;;5129848;27;20375;-66
2021/12/24 01:52:02;;;;;;;2.70;2.08;;;20.00;37.50;;;;;;5130350;27;20074;-64
2021/12/24 01:54:27;;;;;;;1.95;1.70;;;19.80;37.90;;;;;;5129842;27;20046;-62
2021/12/24 01:56:53;;;;;;;3.13;2.30;;;19.60;38.40;;;;;;5129995;28;20031;-66
2021/12/24 01:59:19;;;;;;;2.30;1.90;;;19.40;38.80;;;;;;5128450;28;20039;-66
2021/12/24 02:01:49;;;;;;;1.85;1.40;;;19.20;39.20;;;;;;5128664;28;20043;-64
2021/12/24 02:04:16;;;;;;;2.10;1.70;;;19.00;40.30;;;;;;5128641;28;20055;-67
2021/12/24 02:06:42;;;;;;;1.90;1.70;;;18.90;40.00;;;;;;5128379;28;20070;-65
2021/12/24 02:09:08;;;;;;;2.35;1.85;;;18.70;40.30;;;;;;5128399;28;20075;-65
2021/12/24 02:11:37;;;;;;;2.40;2.05;;;18.50;40.60;;;;;;5128536;28;20040;-66
2021/12/24 02:14:06;;;;;;;2.22;1.83;;;18.30;41.10;;;;;;5128080;28;20119;-65
2021/12/24 02:28:21;;;;;;;2.30;1.50;;;17.40;43.40;;;;;;5152833;27;20050;-62
2021/12/24 02:30:30;;;;;;;1.98;1.40;;;17.40;43.80;;;;;;5152776;27;20073;-66
2021/12/24 02:32:56;;;;;;;2.38;1.70;;;17.30;43.90;;;;;;5153246;27;20396;-66
2021/12/24 02:35:23;;;;;;;1.25;1.10;;;17.20;44.20;;;;;;5152791;27;20126;-66
2021/12/24 02:37:50;;;;;;;1.90;1.05;;;17.10;44.40;;;;;;5171410;27;20045;-66
2021/12/24 02:40:16;;;;;;;1.13;0.98;;;17.00;45.30;;;;;;5152953;27;20038;-66
2021/12/24 02:42:49;;;;;;;2.38;1.83;;;17.00;44.80;;;;;;5152987;27;20041;-65
2021/12/24 02:45:17;;;;;;;1.60;1.30;;;16.90;45.20;;;;;;5171308;27;20079;-66
2021/12/24 02:55:50;;;;;;;1.58;1.25;;;16.60;46.10;;;;;;5128811;28;20047;-63
2021/12/24 02:58:17;;;;;;;1.60;1.17;;;16.50;46.20;;;;;;5129007;28;20035;-66
2021/12/24 03:00:42;;;;;;;1.58;1.38;;;16.50;46.40;;;;;;5128842;28;20104;-66
2021/12/24 03:03:11;;;;;;;1.05;0.90;;;16.50;46.50;;;;;;5129382;28;20051;-68
2021/12/24 03:05:36;;;;;;;1.85;1.15;;;16.40;46.60;;;;;;5128955;27;20428;-66
2021/12/24 03:08:02;;;;;;;1.50;0.90;;;16.40;46.60;;;;;;5130208;28;20039;-66
2021/12/24 03:10:31;;;;;;;1.35;1.02;;;16.40;46.80;;;;;;5130114;27;20062;-63
2021/12/24 03:12:57;;;;;;;1.50;0.80;;;16.40;46.80;;;;;;5130052;28;20047;-66
2021/12/24 03:15:25;;;;;;;1.35;0.77;;;16.40;46.90;;;;;;5128617;28;20546;-66
2021/12/24 03:17:58;;;;;;;1.45;1.23;;;16.40;47.00;;;;;;5128541;28;20088;-66
2021/12/24 03:20:24;;;;;;;1.65;1.10;;;16.40;47.20;;;;;;5128520;28;20042;-66
2021/12/24 03:23:06;;;;;;;1.30;0.80;;;16.30;47.20;;;;;;5129922;27;20070;-66
2021/12/24 03:25:32;;;;;;;0.88;0.68;;;16.40;47.30;;;;;;5129926;27;20042;-62
2021/12/24 03:27:58;;;;;;;1.30;0.70;;;16.30;47.50;;;;;;5128629;28;20394;-66
2021/12/24 03:30:24;;;;;;;1.10;0.70;;;16.30;47.60;;;;;;5129746;28;20211;-66
2021/12/24 03:32:49;;;;;;;1.10;0.60;;;16.30;47.70;;;;;;5128041;28;20077;-63
2021/12/24 03:35:15;;;;;;;1.58;0.70;;;16.30;47.70;;;;;;5129616;27;20036;-66
2021/12/24 03:37:41;;;;;;;0.70;0.40;;;16.30;47.70;;;;;;5128356;28;20099;-64
2021/12/24 03:40:07;;;;;;;1.02;0.57;;;16.30;47.90;;;;;;5129518;27;20126;-66
2021/12/24 03:42:37;;;;;;;1.10;0.75;;;16.30;47.90;;;;;;5129415;27;20067;-66
2021/12/24 03:45:19;;;;;;;1.17;0.90;;;16.20;47.90;;;;;;5129476;27;20043;-67
2021/12/24 03:47:52;;;;;;;1.25;0.60;;;16.20;48.00;;;;;;5127962;28;20051;-66
2021/12/24 03:50:18;;;;;;;1.20;0.68;;;16.30;48.00;;;;;;5129446;27;20093;-65
2021/12/24 03:53:03;;;;;;;1.30;0.75;;;16.30;48.20;;;;;;5128915;27;20527;-64
2021/12/24 03:55:29;;;;;;;1.52;0.70;;;16.30;48.10;;;;;;5127972;28;20044;-66
2021/12/24 03:57:55;;;;;;;0.80;0.63;;;16.30;48.10;;;;;;5127722;28;20088;-66
2021/12/24 04:00:27;;;;;;;0.95;0.50;;;16.20;48.20;;;;;;5127781;28;20058;-66
2021/12/24 04:02:52;;;;;;;1.00;0.60;;;16.20;48.30;;;;;;5122606;28;20055;-66
2021/12/24 04:05:18;;;;;;;1.73;0.70;;;16.20;48.30;;;;;;5115286;28;20031;-66
2021/12/24 04:07:44;;;;;;;1.08;0.65;;;16.20;48.40;;;;;;5113915;28;20050;-63
2021/12/24 04:12:56;;;;;;;1.55;0.85;;;16.20;48.60;;;;;;5150948;27;20130;-64
2021/12/24 04:15:22;;;;;;;1.30;0.73;;;16.10;48.60;;;;;;5128930;28;20229;-65
2021/12/24 04:17:51;;;;;;;2.17;0.85;;;16.10;48.70;;;;;;5129247;28;20122;-63
2021/12/24 04:25:48;;;;;;;1.17;0.77;;;16.10;48.90;;;;;;5129957;28;20039;-66
2021/12/24 04:28:13;;;;;;;1.05;0.68;;;16.10;48.90;;;;;;5128740;28;20039;-66
2021/12/24 04:30:45;;;;;;;1.60;0.90;;;16.10;49.00;;;;;;5129951;28;20040;-67
2021/12/24 04:33:20;;;;;;;1.58;0.70;;;16.00;48.90;;;;;;5128642;28;20498;-66
2021/12/24 04:35:57;;;;;;;2.67;1.30;;;16.10;49.00;;;;;;5128875;28;20440;-66
2021/12/24 04:38:33;;;;;;;1.13;0.95;;;16.10;49.10;;;;;;5128494;28;20475;-68
2021/12/24 04:52:10;;;;;;;1.33;0.95;;;16.10;49.20;;;;;;5128244;28;20567;-66
2021/12/24 05:08:25;;;;;;;1.83;0.88;;;16.10;49.20;;;;;;5130351;27;20759;-67
2021/12/24 05:10:52;;;;;;;2.75;1.30;;;16.10;49.30;;;;;;5128930;28;20065;-65
2021/12/24 05:13:20;;;;;;;2.83;1.48;;;16.10;49.30;;;;;;5129253;28;20047;-67
2021/12/24 05:15:49;;;;;;;2.20;1.08;;;16.10;49.30;;;;;;5128950;28;20039;-66
2021/12/24 05:18:47;;;;;;;3.63;1.20;;;16.10;49.30;;;;;;5128871;28;20043;-66
2021/12/24 05:21:33;;;;;;;3.03;1.17;;;16.10;49.30;;;;;;5128825;28;20088;-65
2021/12/24 05:23:49;;;;;;;1.48;1.08;;;16.10;49.30;;;;;;5129959;28;20070;-66
2021/12/24 05:26:18;;;;;;;3.25;1.33;;;16.10;49.30;;;;;;5129783;27;20556;-65
2021/12/24 05:28:46;;;;;;;3.50;1.27;;;16.10;49.30;;;;;;5130211;27;20066;-66
2021/12/24 05:31:12;;;;;;;1.10;0.70;;;16.00;49.30;;;;;;5129453;27;20394;-66
2021/12/24 05:33:38;;;;;;;2.78;0.88;;;16.10;49.40;;;;;;5129953;27;20364;-65
2021/12/24 05:36:04;;;;;;;1.30;0.80;;;16.10;49.30;;;;;;5128796;28;20584;-66
2021/12/24 05:38:30;;;;;;;3.55;0.90;;;16.10;49.30;;;;;;5128443;28;20036;-62
2021/12/24 05:40:56;;;;;;;4.00;1.33;;;16.10;49.30;;;;;;5129099;27;20427;-65
2021/12/24 05:43:21;;;;;;;1.77;0.80;;;16.20;49.50;;;;;;5128386;28;20119;-65
2021/12/24 05:45:47;;;;;;;1.50;0.80;;;16.10;49.40;;;;;;5129605;27;20036;-65
2021/12/24 05:48:13;;;;;;;2.17;0.80;;;16.10;49.40;;;;;;5129947;27;20447;-63
2021/12/24 05:50:38;;;;;;;4.18;0.82;;;16.10;49.50;;;;;;5128407;28;20047;-65
2021/12/24 05:53:04;;;;;;;2.80;0.98;;;16.10;49.50;;;;;;5129963;27;20390;-66
2021/12/24 05:55:30;;;;;;;2.75;0.80;;;16.10;49.60;;;;;;5129387;27;20070;-65
2021/12/24 05:57:55;;;;;;;2.75;1.30;;;16.10;49.60;;;;;;5128084;28;20065;-62
2021/12/24 06:00:21;;;;;;;3.78;0.80;;;16.10;49.60;;;;;;5128334;28;20043;-64
2021/12/24 06:02:47;;;;;;;3.72;1.20;;;16.10;49.70;;;;;;5128196;28;20042;-62
2021/12/24 06:05:12;;;;;;;2.50;0.80;;;16.10;49.60;;;;;;5128148;28;20043;-66
2021/12/24 06:07:38;;;;;;;2.10;1.25;;;16.10;49.60;;;;;;5127566;28;20146;-65
2021/12/24 06:10:05;;;;;;;4.57;1.73;;;16.10;49.60;;;;;;5127891;28;20039;-65
2021/12/24 06:12:31;;;;;;;2.70;1.02;;;16.20;49.80;;;;;;5127750;28;20122;-62
2021/12/24 06:15:02;;;;;;;3.15;0.80;;;16.10;49.70;;;;;;5129143;27;20127;-66
2021/12/24 06:17:28;;;;;;;3.22;1.00;;;16.10;49.60;;;;;;5128435;27;20031;-65
2021/12/24 06:19:57;;;;;;;2.65;0.90;;;16.10;49.70;;;;;;5114798;28;20457;-62
2021/12/24 06:22:23;;;;;;;2.45;0.90;;;16.10;49.70;;;;;;5115282;28;20115;-64
2021/12/24 06:24:48;;;;;;;3.80;1.15;;;16.10;49.60;;;;;;5115173;28;20119;-65
2021/12/24 06:27:14;;;;;;;3.33;1.38;;;16.20;49.70;;;;;;5113704;28;20195;-66
2021/12/24 06:29:40;;;;;;;2.33;0.80;;;16.20;49.80;;;;;;5113908;28;20063;-65
2021/12/24 06:32:09;;;;;;;4.63;1.00;;;16.20;49.80;;;;;;5115136;28;20085;-63
2021/12/24 06:34:41;;;;;;;3.35;1.38;;;16.20;49.70;;;;;;5113716;28;20399;-63
2021/12/24 06:37:08;;;;;;;1.35;0.88;;;16.10;49.70;;;;;;5113620;28;20055;-64
2021/12/24 06:39:34;;;;;;;4.40;0.90;;;16.10;49.70;;;;;;5114905;28;20067;-65
2021/12/24 06:41:59;;;;;;;2.65;1.00;;;16.20;49.70;;;;;;5114805;28;20085;-66
2021/12/24 06:44:26;;;;;;;2.67;0.77;;;16.20;49.70;;;;;;5113402;28;20087;-64
2021/12/24 06:46:52;;;;;;;1.92;0.77;;;16.20;49.70;;;;;;5111454;28;20046;-66
2021/12/24 06:49:18;;;;;;;2.75;0.95;;;16.30;50.40;;;;;;5112955;28;20040;-67
2021/12/24 06:51:44;;;;;;;1.88;0.40;;;16.90;50.10;;;;;;5112235;28;20050;-67
2021/12/24 06:54:11;;;;;;;2.42;0.85;;;18.80;46.60;;;;;;5113052;28;20040;-64
2021/12/24 06:56:48;;;;;;;1.92;0.50;;;20.70;43.20;;;;;;5114838;28;20475;-67
2021/12/24 06:59:15;;;;;;;4.82;0.70;;;22.10;40.70;;;;;;5112310;28;20044;-67
2021/12/24 07:01:41;;;;;;;4.18;0.93;;;23.00;39.20;;;;;;5114078;28;20301;-63
2021/12/24 07:04:07;;;;;;;3.22;0.40;;;23.90;37.60;;;;;;5112134;28;20044;-66
2021/12/24 07:06:33;;;;;;;1.98;0.55;;;24.50;36.50;;;;;;5111248;28;20051;-66
2021/12/24 07:08:59;;;;;;;1.48;0.60;;;24.70;36.10;;;;;;5111677;27;20550;-66
2021/12/24 07:11:25;;;;;;;4.15;0.65;;;25.00;35.50;;;;;;5112530;28;20114;-65
2021/12/24 07:13:54;;;;;;;3.20;0.65;;;25.30;35.20;;;;;;5113342;28;20065;-67
2021/12/24 07:16:22;;;;;;;3.42;0.60;;;25.60;34.70;;;;;;5112287;28;20035;-66
2021/12/24 07:18:48;;;;;;;1.98;0.50;;;26.00;34.40;;;;;;5127917;27;20043;-67
2021/12/24 07:21:14;;;;;;;2.00;0.40;;;25.90;34.20;;;;;;5112028;28;20611;-63
2021/12/24 07:23:40;;;;;;;4.05;0.77;;;26.00;34.10;;;;;;5111976;28;20039;-66
2021/12/24 07:26:08;;;;;;;4.38;0.47;;;26.00;34.00;;;;;;5112854;28;20430;-66
2021/12/24 07:28:34;;;;;;;4.88;0.70;;;26.00;34.00;;;;;;5110519;28;20106;-65
2021/12/24 07:30:59;;;;;;;2.88;0.40;;;26.00;34.20;;;;;;5110657;28;20111;-67
2021/12/24 07:33:26;;;;;;;2.13;0.40;;;25.90;34.30;;;;;;5108398;28;20352;-67
2021/12/24 07:35:52;;;;;;;3.20;0.50;;;25.80;34.30;;;;;;5108807;28;20031;-63
2021/12/24 07:38:17;;;;;;;4.45;0.50;;;25.80;34.30;;;;;;5109981;28;20042;-66
2021/12/24 07:40:45;;;;;;;2.33;0.50;;;25.80;34.40;;;;;;5109965;28;20104;-67
2021/12/24 07:43:11;;;;;;;3.95;1.02;;;25.80;34.30;;;;;;5111660;28;20360;-67
2021/12/24 07:45:38;;;;;;;5.22;0.57;;;26.00;34.20;;;;;;5109386;28;20043;-67
2021/12/24 07:48:10;;;;;;;2.80;0.60;;;26.10;34.10;;;;;;5111659;28;20035;-66
2021/12/24 07:53:19;;;;;;;4.05;0.77;;;26.30;34.50;;;;;;5089122;27;20409;-67
2021/12/24 07:55:45;;;;;;;6.25;0.52;;;26.10;33.80;;;;;;5087575;28;20097;-68
2021/12/24 07:58:14;;;;;;;6.85;1.50;;;26.20;33.70;;;;;;5087639;28;20044;-64
2021/12/24 08:00:42;;;;;;;4.30;0.90;;;26.30;33.70;;;;;;5087552;28;20045;-67
2021/12/24 08:03:09;;;;;;;4.22;0.85;;;26.30;33.70;;;;;;5088967;28;20140;-65
2021/12/24 08:05:39;;;;;;;2.58;0.70;;;26.30;33.60;;;;;;5089224;28;20392;-67
2021/12/24 08:08:08;;;;;;;4.13;0.95;;;26.10;33.60;;;;;;5088169;28;20047;-67
2021/12/24 08:10:34;;;;;;;3.55;0.90;;;25.90;33.90;;;;;;5087801;28;20115;-67
2021/12/24 08:13:02;;;;;;;4.07;0.77;;;25.90;34.00;;;;;;5087846;28;20127;-68
2021/12/24 08:15:28;;;;;;;4.70;0.50;;;25.90;34.00;;;;;;5086364;28;20107;-67
2021/12/24 08:17:56;;;;;;;7.53;0.95;;;26.00;33.70;;;;;;5087113;28;20119;-68
2021/12/24 08:20:24;;;;;;;7.18;1.25;;;26.00;33.80;;;;;;5087250;28;20036;-64
2021/12/24 08:22:52;;;;;;;5.15;0.80;;;26.00;33.70;;;;;;5087055;28;20078;-65
2021/12/24 08:25:18;;;;;;;6.13;0.90;;;26.10;33.50;;;;;;5087471;28;20040;-64
2021/12/24 08:27:45;;;;;;;3.10;0.75;;;26.10;33.60;;;;;;5086746;28;20115;-65
2021/12/24 08:30:11;;;;;;;7.03;1.15;;;26.10;33.50;;;;;;5086901;28;20051;-67
2021/12/24 08:32:40;;;;;;;3.50;0.68;;;26.20;33.40;;;;;;5087404;28;20079;-66
2021/12/24 08:35:10;;;;;;;3.13;0.90;;;26.10;33.50;;;;;;5086790;28;20044;-66
2021/12/24 08:37:36;;;;;;;4.07;0.70;;;26.10;33.60;;;;;;5086509;28;20040;-68
2021/12/24 08:40:02;;;;;;;3.85;0.80;;;25.90;33.80;;;;;;5087670;28;20115;-68
2021/12/24 08:42:28;;;;;;;3.08;0.77;;;25.80;33.90;;;;;;5084945;28;20094;-67
2021/12/24 08:44:53;;;;;;;2.95;0.70;;;25.80;34.20;;;;;;5087369;28;20449;-67
2021/12/24 08:47:19;;;;;;;2.72;0.90;;;25.70;34.40;;;;;;5087073;28;20032;-67
2021/12/24 08:49:45;;;;;;;2.55;0.50;;;25.60;34.60;;;;;;5086191;28;20040;-67
2021/12/24 08:52:10;;;;;;;3.65;0.63;;;25.50;34.60;;;;;;5086975;28;20559;-65
2021/12/24 08:54:36;;;;;;;2.00;0.63;;;25.60;34.60;;;;;;5085035;28;20028;-67
2021/12/24 08:57:03;;;;;;;4.38;1.02;;;25.60;34.50;;;;;;5087414;28;20036;-64
2021/12/24 08:59:29;;;;;;;3.33;0.55;;;25.70;34.30;;;;;;5086634;28;20075;-62
2021/12/24 09:01:58;;;;;;;4.93;0.30;;;26.00;34.10;;;;;;5086034;28;20094;-66
2021/12/24 09:04:24;;;;;;;3.00;0.40;;;26.60;33.20;;;;;;5074155;28;20048;-65
2021/12/24 09:06:49;;;;;;;1.85;0.55;;;27.30;32.50;;;;;;5073077;28;20048;-66
2021/12/24 09:09:15;;;;;;;2.65;0.50;;;27.70;32.00;;;;;;5072707;28;20048;-66
2021/12/24 09:11:45;;;;;;;3.17;0.75;;;28.00;31.60;;;;;;5073543;28;20540;-65
2021/12/24 09:14:17;;;;;;;4.10;0.57;;;28.40;31.30;;;;;;5073215;28;20627;-65
2021/12/24 09:16:44;;;;;;;1.48;0.30;;;28.50;30.90;;;;;;5073048;28;20365;-65
2021/12/24 09:19:13;;;;;;;3.95;0.63;;;28.70;30.80;;;;;;5070362;28;20535;-66
2021/12/24 09:21:39;;;;;;;2.88;0.57;;;28.80;30.70;;;;;;5073824;28;20047;-65
2021/12/24 09:24:07;;;;;;;3.40;0.65;;;28.50;30.90;;;;;;5071975;28;20136;-65
2021/12/24 09:26:33;;;;;;;2.88;0.47;;;28.40;31.00;;;;;;5073101;28;20045;-65
2021/12/24 09:29:00;;;;;;;2.17;0.43;;;28.30;31.20;;;;;;5071692;28;20090;-66
2021/12/24 09:31:27;;;;;;;3.90;0.60;;;28.00;31.40;;;;;;5070992;28;20120;-66
2021/12/24 09:33:54;;;;;;;3.10;0.57;;;27.40;32.10;;;;;;5072659;28;20032;-66
2021/12/24 09:36:26;;;;;;;1.85;0.30;;;26.70;33.00;;;;;;5072752;28;20044;-66
2021/12/24 09:38:54;;;;;;;3.72;0.63;;;26.20;33.90;;;;;;5072602;28;20143;-65
2021/12/24 09:41:21;;;;;;;2.10;0.30;;;25.90;34.50;;;;;;5072791;28;20068;-67
2021/12/24 09:43:51;;;;;;;3.10;0.43;;;25.70;34.70;;;;;;5069096;28;20051;-67
2021/12/24 09:46:16;;;;;;;2.97;0.60;;;25.90;34.70;;;;;;5072729;28;20041;-66
2021/12/24 09:48:42;;;;;;;3.60;0.80;;;26.00;34.40;;;;;;5071048;28;20094;-67
2021/12/24 09:51:08;;;;;;;2.47;0.70;;;26.10;34.30;;;;;;5071589;28;20036;-66
2021/12/24 09:53:36;;;;;;;2.90;0.30;;;26.20;34.20;;;;;;5070391;28;20048;-65
2021/12/24 09:56:04;;;;;;;2.95;0.65;;;26.60;33.60;;;;;;5072188;28;20056;-64
2021/12/24 09:58:30;;;;;;;2.47;0.45;;;27.00;33.10;;;;;;5069342;28;20037;-64
2021/12/24 10:00:55;;;;;;;2.72;0.70;;;27.30;32.90;;;;;;5072279;28;20032;-65
2021/12/24 10:03:30;;;;;;;3.55;0.70;;;27.40;32.70;;;;;;5072241;28;20048;-65
2021/12/24 10:05:57;;;;;;;3.00;0.60;;;27.60;32.60;;;;;;5071512;28;20074;-63
2021/12/24 10:08:25;;;;;;;3.90;0.32;;;27.70;32.40;;;;;;5071193;28;20553;-65
2021/12/24 10:11:02;;;;;;;1.77;0.30;;;27.70;32.40;;;;;;5070697;28;20068;-65
2021/12/24 10:16:15;;;;;;;5.25;0.50;;;27.50;32.30;;;;;;5136008;27;1164411;-64
2021/12/24 10:18:43;;;;;;;;;;;27.80;32.10;;;;;;5118318;28;20057;-64
2021/12/24 10:21:14;;;;;;;2.05;0.47;;;27.60;32.00;;;;;;5123274;27;19915;-66
2021/12/24 10:23:47;;;;;;;3.33;0.50;;;27.60;32.20;;;;;;5121991;27;20419;-63
2021/12/24 10:29:06;;;;;;;6.13;0.57;;;27.00;32.90;;;;;;5111962;27;20504;-65
2021/12/24 10:34:36;;;;;;;3.35;0.60;;;26.70;33.30;;;;;;5095146;27;20815;-66
2021/12/24 10:39:47;;;;;;;3.10;0.40;;;26.50;33.60;;;;;;5128188;27;1155828;-67
2021/12/24 10:44:56;;;;;;;3.13;0.40;;;25.20;35.20;;;;;;5111294;27;20351;-67
2021/12/24 10:47:26;;;;;;;3.83;0.82;;;24.70;36.00;;;;;;5122707;28;20040;-69
2021/12/24 10:50:28;;;;;;;3.63;0.40;;;24.30;36.70;;;;;;5104220;28;20035;-62
2021/12/24 10:53:34;;;;;;;2.72;0.60;;;23.90;37.20;;;;;;5107686;28;20040;-67
2021/12/24 10:55:50;;;;;;;7.07;1.15;;;23.60;38.10;;;;;;5105176;28;20491;-66
2021/12/24 10:58:19;;;;;;;5.38;0.77;;;23.30;38.80;;;;;;5106721;28;20031;-67
2021/12/24 11:03:28;;;;;;;6.38;0.68;;;23.10;39.20;;;;;;5140125;27;20393;-66
2021/12/24 11:06:03;;;;;;;5.32;0.65;;;22.70;40.00;;;;;;5133403;27;20035;-65
2021/12/24 11:08:32;;;;;;;6.15;0.75;;;22.60;40.40;;;;;;5139027;27;20038;-66
2021/12/24 11:11:00;;;;;;;4.05;0.90;;;22.40;40.80;;;;;;5109306;28;20035;-67
2021/12/24 11:13:39;;;;;;;5.28;0.73;;;22.20;41.20;;;;;;5133439;27;20046;-62
2021/12/24 11:16:07;;;;;;;3.17;0.35;;;22.00;41.50;;;;;;5135751;27;20066;-65
2021/12/24 11:18:39;;;;;;;1.88;0.40;;;21.90;41.90;;;;;;5138552;27;20043;-65
2021/12/24 11:21:12;;;;;;;3.60;0.70;;;21.70;42.30;;;;;;5134436;27;20035;-66
2021/12/24 11:23:40;;;;;;;5.45;0.85;;;21.60;42.70;;;;;;5140573;27;20042;-68
2021/12/24 11:28:45;;;;;;;4.40;0.50;;;21.40;43.10;;;;;;5128943;27;20906;-66
2021/12/24 11:31:20;;;;;;;2.40;0.30;;;21.20;43.80;;;;;;5126783;28;20116;-69
2021/12/24 11:33:48;;;;;;;3.95;0.38;;;21.10;44.10;;;;;;5147806;27;20052;-66
2021/12/24 11:36:16;;;;;;;1.58;0.20;;;21.10;44.30;;;;;;5129412;27;20391;-65
2021/12/24 11:38:46;;;;;;;2.83;0.40;;;21.10;44.40;;;;;;5127364;28;20080;-67
2021/12/24 11:41:15;;;;;;;2.53;0.50;;;21.00;44.40;;;;;;5127621;28;20114;-66
2021/12/24 11:43:47;;;;;;;2.17;0.50;;;21.00;44.50;;;;;;5127991;27;20036;-68
2021/12/24 11:46:15;;;;;;;2.03;0.30;;;21.10;44.40;;;;;;5123421;28;20050;-64
2021/12/24 11:48:42;;;;;;;3.03;0.30;;;21.20;44.20;;;;;;5127052;28;20035;-68
2021/12/24 11:51:18;;;;;;;2.50;0.32;;;21.20;44.10;;;;;;5125806;28;20035;-67
2021/12/24 11:53:45;;;;;;;2.72;0.47;;;21.30;43.90;;;;;;5122617;28;20041;-67
2021/12/24 11:56:14;;;;;;;3.78;0.50;;;21.40;43.90;;;;;;5128324;28;20280;-64
2021/12/24 12:01:27;;;;;;;3.45;0.25;;;21.40;43.90;;;;;;5129320;27;20383;-65
2021/12/24 12:03:55;;;;;;;1.58;0.40;;;21.40;43.90;;;;;;5128175;28;20050;-65
2021/12/24 12:09:07;;;;;;;1.25;0.30;;;21.40;43.90;;;;;;5129134;27;20568;-67
2021/12/24 12:11:35;;;;;;;2.20;0.30;;;21.40;43.70;;;;;;5125944;28;20047;-67
2021/12/24 12:16:50;;;;;;;1.35;0.17;;;21.50;43.50;;;;;;5132886;27;20379;-67
2021/12/24 12:19:50;;;;;;;2.37;0.20;;;21.50;43.60;;;;;;5111666;28;20040;-68
2021/12/24 12:25:36;;;;;;;3.65;0.30;;;21.30;43.20;;;;;;5148537;27;1161752;-67
2021/12/24 12:28:06;;;;;;;1.85;0.28;;;21.30;43.40;;;;;;5152066;27;20043;-64
2021/12/24 12:35:57;;;;;;;4.13;0.20;;;21.20;43.70;;;;;;5128959;27;20913;-66
2021/12/24 12:41:30;;;;;;;1.33;0.20;;;21.10;44.10;;;;;;5107948;27;20786;-66
2021/12/24 12:43:57;;;;;;;3.35;0.17;;;21.00;44.60;;;;;;5083659;28;20053;-65
2021/12/24 12:46:30;;;;;;;2.55;0.30;;;20.90;44.80;;;;;;5095949;28;20039;-66
2021/12/24 12:48:57;;;;;;;1.50;0.20;;;20.80;45.10;;;;;;5089165;28;20097;-66
2021/12/24 12:54:36;;;;;;;4.37;0.10;;;20.60;45.60;;;;;;5131120;27;1168877;-67
2021/12/24 13:00:17;;;;;;;1.38;0.30;;;20.60;45.60;;;;;;5108012;27;20311;-67
2021/12/24 13:08:28;;;;;;;0.68;0.10;;;20.50;45.90;;;;;;5129922;27;20383;-68
2021/12/24 13:22:38;;;;;;;0.52;0.10;;;20.20;46.20;;;;;;5129076;27;20426;-67
2021/12/24 13:25:13;;;;;;;1.02;0.00;;;20.20;46.40;;;;;;5128269;28;20096;-66
2021/12/24 13:27:45;;;;;;;2.17;0.10;;;20.10;46.50;;;;;;5128873;28;20040;-64
2021/12/24 13:30:31;;;;;;;6.85;0.20;;;20.10;46.70;;;;;;5128792;28;20036;-66
2021/12/24 13:33:00;;;;;;;12.05;0.30;;;20.00;46.90;;;;;;5129001;28;20483;-66
2021/12/24 13:35:31;;;;;;;2.55;0.20;;;20.00;46.80;;;;;;5128600;28;20080;-65
2021/12/24 13:37:57;;;;;;;4.85;0.20;;;20.00;47.00;;;;;;5130066;27;20058;-70
2021/12/24 13:40:27;;;;;;;6.75;0.32;;;20.00;47.00;;;;;;5129830;27;20498;-69
2021/12/24 13:43:01;;;;;;;6.07;0.15;;;20.00;47.30;;;;;;5129413;27;20046;-70
2021/12/24 13:45:32;;;;;;;7.28;0.30;;;19.90;47.40;;;;;;5129045;27;20039;-67
2021/12/24 13:48:04;;;;;;;8.25;0.40;;;19.90;47.40;;;;;;5128356;28;20039;-66
2021/12/24 13:56:49;;;;;;;9.90;0.30;;;19.80;48.40;;;;;;5128397;28;20513;-68
2021/12/24 13:59:21;;;;;;;4.30;0.20;;;19.70;48.60;;;;;;5128510;28;20069;-67
2021/12/24 14:01:47;;;;;;;5.35;0.25;;;19.70;48.50;;;;;;5128743;27;20047;-67
2021/12/24 14:04:18;;;;;;;4.88;0.10;;;19.70;48.30;;;;;;5129049;27;20046;-67
2021/12/24 14:06:46;;;;;;;3.58;0.22;;;19.70;48.30;;;;;;5127983;27;20053;-72
2021/12/24 14:11:53;;;;;;;2.40;0.10;;;19.60;48.10;;;;;;5130250;27;20690;-69
2021/12/24 14:14:25;;;;;;;2.47;0.10;;;19.60;48.20;;;;;;5128541;28;20088;-70
2021/12/24 14:19:49;;;;;;;3.28;0.20;;;19.60;48.30;;;;;;5109264;27;20457;-69
2021/12/24 14:22:17;;;;;;;;;;;19.50;48.20;;;;;;5090981;28;20048;-67
2021/12/24 14:25:08;;;;;;;3.72;0.10;;;19.50;48.30;;;;;;5108036;28;19965;-69
2021/12/24 14:27:35;;;;;;;2.42;0.10;;;19.50;48.30;;;;;;5104819;28;20385;-69
2021/12/24 14:30:05;;;;;;;1.50;0.00;;;19.60;48.10;;;;;;5082961;28;20063;-68
2021/12/24 14:32:42;;;;;;;5.40;0.30;;;19.50;48.00;;;;;;5090779;28;20085;-70
2021/12/24 14:35:15;;;;;;;6.30;0.20;;;19.50;48.20;;;;;;5108378;28;20036;-67
2021/12/24 14:37:42;;;;;;;3.80;0.10;;;19.50;48.20;;;;;;5090834;28;20036;-64
2021/12/24 14:42:51;;;;;;;2.88;0.10;;;19.50;48.10;;;;;;5128992;27;20844;-67
2021/12/24 14:45:35;;;;;;;2.75;0.10;;;19.50;48.00;;;;;;5128239;28;20043;-67
2021/12/24 14:48:05;;;;;;;2.17;0.20;;;19.50;48.00;;;;;;5128293;28;20051;-69
2021/12/24 14:50:34;;;;;;;0.15;0.05;;;19.50;48.00;;;;;;5127655;28;20453;-66
2021/12/24 14:58:37;;;;;;;4.90;0.03;;;19.50;48.00;;;;;;5151579;27;1167653;-66
2021/12/24 15:01:13;;;;;;;1.08;0.10;;;19.40;47.80;;;;;;5152548;27;20276;-66
2021/12/24 15:03:40;;;;;;;1.92;0.10;;;19.40;47.70;;;;;;5152430;27;20069;-66
2021/12/24 15:11:45;;;;;;;0.45;0.10;;;19.30;47.60;;;;;;5111415;27;1162013;-66
2021/12/24 15:14:14;;;;;;;0.40;0.00;;;19.30;47.60;;;;;;5111594;28;20039;-66
2021/12/24 15:16:46;;;;;;;2.25;0.10;;;19.30;47.60;;;;;;5111839;28;20482;-66
2021/12/24 15:19:12;;;;;;;0.13;0.00;;;19.20;47.50;;;;;;5111759;28;20122;-66
2021/12/24 15:21:41;;;;;;;0.13;0.00;;;19.20;47.40;;;;;;5130129;28;20066;-66
2021/12/24 15:24:08;;;;;;;2.03;0.10;;;19.20;47.40;;;;;;5111793;28;20285;-66
2021/12/24 15:26:34;;;;;;;0.30;0.10;;;19.20;47.40;;;;;;5111942;28;20474;-66
2021/12/24 15:29:02;;;;;;;0.47;0.10;;;19.20;47.40;;;;;;5111790;28;20039;-66
2021/12/24 15:31:30;;;;;;;0.20;0.10;;;19.20;47.30;;;;;;5111407;28;20126;-65
2021/12/24 15:33:57;;;;;;;3.05;0.30;;;19.20;47.30;;;;;;5111476;28;20450;-65
2021/12/24 15:36:27;;;;;;;1.10;0.10;;;19.20;47.30;;;;;;5129761;28;20418;-66
2021/12/24 15:38:52;;;;;;;0.47;0.10;;;19.20;47.30;;;;;;5111474;28;20043;-66
2021/12/24 15:41:18;;;;;;;1.35;0.10;;;19.10;47.30;;;;;;5111575;28;20042;-66
2021/12/24 15:43:45;;;;;;;0.28;0.10;;;19.00;47.30;;;;;;5111468;28;20122;-65
2021/12/24 15:46:11;;;;;;;2.58;0.20;;;19.00;47.40;;;;;;5111219;28;20043;-65
2021/12/24 15:48:37;;;;;;;0.70;0.30;;;18.90;47.50;;;;;;5129786;28;20047;-66
2021/12/24 15:51:05;;;;;;;0.95;0.30;;;18.90;47.60;;;;;;5111014;28;20118;-66
2021/12/24 15:53:33;;;;;;;1.00;0.22;;;18.90;47.70;;;;;;5129646;28;20370;-67
2021/12/24 15:56:01;;;;;;;0.73;0.30;;;18.80;47.70;;;;;;5111135;28;20043;-66
2021/12/24 15:58:27;;;;;;;0.30;0.10;;;18.80;47.80;;;;;;5129355;28;20089;-66
2021/12/24 16:00:53;;;;;;;1.52;0.10;;;18.70;47.80;;;;;;5111050;28;20039;-65